Skip Navigation LinksHome page > Weather > Current weather Skip Navigation Links

Current Weather

Cincinnati/Northern Kentucky International, Covington, Ky.

For information only: do not use for flight planning or navigation.
Latest weather
Observation time Sunday, May 26, 2019 11:52 AM EDT
Local time Sunday, May 26, 2019 12:06 PM EDT
Flight conditions Visual Meteorological Conditions
Winds
Wind direction Southwest (220°)
Wind speed 10 mph
Visibility 10 mi.
Sky condition
Ceiling unlimited
Cloud layer few clouds 6,000 ft.
Cloud layer few clouds 15,000 ft.
Cloud layer scattered clouds 25,000 ft.
Temperature 84°F
Dewpoint 67°F
Altimeter 30.06 in.Hg
Derived measurements
Relative humidity 57%
Heat index 87°F
Density altitude 2641 ft.
Sea-level pressure 30.03 in.Hg
Remarks
Automated weather observing station with precipitation discriminator.
METAR KCVG 261552Z 22009KT 10SM FEW060 FEW150 SCT250 29/19 A3006 RMK AO2 SLP168 T02890194

Settings

Location code

InnerDrive.Weather 4.0.6770.0 Release CLR 4.0.30319.42000
Copyright ©2018 Inner Drive Technology. All rights reserved. Portions Copyright ©1986-2018 David Braverman.

Find weather

Site navigation


Skip Navigation Links

Place info

Page info

PayPal - The safer, easier way to pay online!

Return home.

Copyright ©2019 Inner Drive Technology. Purveyors of fine, hand-crafted computer software. Page printed 2019-05-26T16:06:38 UTC.